Terminal Aerodrome Forecast
Issued by NWS Grand Junction, CO

Home | Current Version | Previous Version | Text Only | Print | Product List | Glossary On
Versions: 1 2 3 4 5 6 7 8 9 10 11 12
000
FTUS45 KGJT 142337 AAC
TAFGJT
TAF AMD
KGJT 142337Z 1500/1518 04014KT P6SM SKC
     FM150300 05004KT P6SM SKC
     FM150700 10003KT P6SM SKC
     FM151700 20005KT P6SM FEW250=

USA.gov is the U.S. government's official web portal to all federal, state and local government web resources and services.